createdAt,value
2018-12-17T00:01:24.422Z,26.70
2018-12-17T00:03:53.218Z,25.97
2018-12-17T00:06:21.426Z,22.77
2018-12-17T00:08:49.677Z,25.57
2018-12-17T00:11:18.410Z,22.47
2018-12-17T00:13:46.575Z,24.43
2018-12-17T00:16:14.747Z,24.30
2018-12-17T00:18:42.924Z,24.17
2018-12-17T00:21:11.090Z,23.90
2018-12-17T00:23:39.296Z,23.83
2018-12-17T00:26:07.468Z,24.27
2018-12-17T00:28:35.676Z,24.50
2018-12-17T00:31:03.932Z,23.40
2018-12-17T00:33:32.132Z,24.20
2018-12-17T00:36:00.305Z,25.07
2018-12-17T00:38:28.481Z,25.07
2018-12-17T00:40:56.741Z,26.90
2018-12-17T00:43:25.272Z,27.67
2018-12-17T00:45:53.423Z,28.17
2018-12-17T00:48:22.029Z,37.97
2018-12-17T00:50:50.208Z,36.07
2018-12-17T00:53:18.408Z,38.03
2018-12-17T00:55:46.576Z,37.67
2018-12-17T00:58:15.278Z,38.13
2018-12-17T01:00:43.704Z,37.43
2018-12-17T01:03:11.961Z,32.20
2018-12-17T01:05:40.158Z,31.63
2018-12-17T01:08:08.324Z,30.70
2018-12-17T01:10:36.590Z,31.27
2018-12-17T01:13:04.871Z,29.90
2018-12-17T01:15:33.055Z,28.17
2018-12-17T01:18:01.221Z,30.90
2018-12-17T01:20:29.423Z,27.63
2018-12-17T01:22:57.573Z,30.43
2018-12-17T01:25:25.785Z,30.43
2018-12-17T01:27:53.948Z,31.30
2018-12-17T01:30:22.130Z,33.87
2018-12-17T01:32:50.308Z,27.83
2018-12-17T01:35:18.489Z,30.33
2018-12-17T01:37:46.659Z,28.77
2018-12-17T01:40:14.828Z,27.93
2018-12-17T01:42:43.035Z,29.43
2018-12-17T01:45:11.297Z,28.53
2018-12-17T01:47:39.486Z,30.33
2018-12-17T01:50:07.688Z,28.67
2018-12-17T01:52:36.012Z,30.17
2018-12-17T01:55:04.416Z,30.80
2018-12-17T01:57:32.613Z,31.13
2018-12-17T02:00:01.249Z,32.07
2018-12-17T02:02:29.524Z,29.27
2018-12-17T02:04:57.701Z,30.00
2018-12-17T02:07:25.897Z,30.00
2018-12-17T02:09:54.069Z,32.20
2018-12-17T02:12:22.265Z,29.27
2018-12-17T02:14:50.432Z,33.53
2018-12-17T02:17:18.630Z,29.60
2018-12-17T02:19:46.825Z,29.77
2018-12-17T02:22:15.042Z,29.20
2018-12-17T02:24:43.235Z,34.13
2018-12-17T02:27:11.433Z,35.70
2018-12-17T02:29:39.600Z,42.93
2018-12-17T02:32:07.796Z,52.87
2018-12-17T02:34:35.980Z,64.13
2018-12-17T02:37:04.336Z,75.13
2018-12-17T02:39:32.493Z,84.67
2018-12-17T02:42:00.780Z,82.67
2018-12-17T02:44:28.936Z,85.07
2018-12-17T02:46:57.132Z,88.90
2018-12-17T02:49:25.331Z,62.17
2018-12-17T02:51:53.598Z,50.37
2018-12-17T02:54:21.781Z,43.40
2018-12-17T02:56:49.948Z,37.50
2018-12-17T02:59:18.238Z,28.53
2018-12-17T03:01:46.469Z,24.73
2018-12-17T03:04:14.662Z,30.03
2018-12-17T03:06:42.852Z,26.50
2018-12-17T03:09:11.052Z,28.40
2018-12-17T03:11:39.222Z,24.87
2018-12-17T03:14:07.411Z,25.83
2018-12-17T03:16:35.766Z,25.30
2018-12-17T03:19:04.034Z,20.07
2018-12-17T03:21:32.238Z,19.87
2018-12-17T03:24:00.418Z,20.47
2018-12-17T03:26:28.608Z,20.53
2018-12-17T03:28:56.804Z,21.27
2018-12-17T03:31:25.037Z,21.33
2018-12-17T03:33:53.232Z,19.50
2018-12-17T03:36:21.439Z,20.93
2018-12-17T03:38:49.619Z,19.13
2018-12-17T03:41:17.800Z,20.37
2018-12-17T03:43:45.987Z,18.90
2018-12-17T03:46:14.269Z,20.57
2018-12-17T03:48:42.449Z,18.80
2018-12-17T03:51:10.638Z,17.10
2018-12-17T03:53:38.826Z,17.87
2018-12-17T03:56:07.021Z,15.93
2018-12-17T03:58:35.199Z,20.50
2018-12-17T04:01:03.377Z,18.70
2018-12-17T04:03:31.540Z,21.83
2018-12-17T04:05:59.715Z,18.60
2018-12-17T04:08:27.901Z,18.50
2018-12-17T04:10:56.184Z,18.93
2018-12-17T04:13:24.344Z,21.53
2018-12-17T04:15:52.492Z,18.67
2018-12-17T04:18:20.668Z,19.73
2018-12-17T04:20:48.886Z,19.60
2018-12-17T04:23:17.107Z,18.53
2018-12-17T04:25:45.248Z,20.97
2018-12-17T04:28:13.419Z,19.10
2018-12-17T04:30:41.591Z,17.87
2018-12-17T04:33:09.773Z,21.67
2018-12-17T04:35:37.940Z,16.37
2018-12-17T04:38:06.123Z,17.80
2018-12-17T04:40:34.293Z,21.23
2018-12-17T04:43:02.464Z,16.73
2018-12-17T04:45:30.652Z,19.23
2018-12-17T04:47:58.832Z,20.50
2018-12-17T04:50:27.002Z,18.50
2018-12-17T04:52:55.169Z,18.07
2018-12-17T04:55:23.363Z,21.33
2018-12-17T04:57:51.545Z,20.83
2018-12-17T05:00:19.705Z,18.60
2018-12-17T05:02:47.885Z,18.03
2018-12-17T05:05:16.048Z,22.82
2018-12-17T05:07:44.220Z,23.10
2018-12-17T05:10:12.401Z,21.40
2018-12-17T05:12:40.556Z,27.55
2018-12-17T05:15:08.829Z,28.77
2018-12-17T05:17:37.407Z,33.00
2018-12-17T05:20:05.768Z,33.07
2018-12-17T05:22:33.953Z,41.27
2018-12-17T05:25:02.284Z,39.47
2018-12-17T05:27:30.456Z,48.37
2018-12-17T05:29:58.729Z,52.63
2018-12-17T05:32:26.881Z,58.73
2018-12-17T05:34:55.151Z,56.00
2018-12-17T05:37:23.297Z,59.17
2018-12-17T05:39:51.475Z,61.97
2018-12-17T05:42:19.654Z,52.87
2018-12-17T05:44:47.836Z,56.23
2018-12-17T05:47:15.998Z,54.70
2018-12-17T05:49:44.185Z,59.27
2018-12-17T05:52:12.418Z,57.70
2018-12-17T05:54:40.606Z,50.10
2018-12-17T05:57:08.763Z,43.57
2018-12-17T05:59:36.928Z,31.37
2018-12-17T06:02:05.207Z,25.23
2018-12-17T06:04:33.363Z,23.57
2018-12-17T06:07:01.548Z,19.93
2018-12-17T06:09:29.724Z,19.50
2018-12-17T06:11:57.908Z,20.30
2018-12-17T06:14:26.136Z,19.20
2018-12-17T06:16:54.334Z,21.53
2018-12-17T06:19:22.495Z,22.37
2018-12-17T06:21:50.689Z,22.43
2018-12-17T06:24:18.885Z,22.87
2018-12-17T06:26:47.068Z,18.67
2018-12-17T06:29:15.237Z,26.27
2018-12-17T06:31:43.497Z,23.23
2018-12-17T06:34:11.667Z,22.37
2018-12-17T06:36:39.848Z,23.47
2018-12-17T06:39:08.027Z,24.07
2018-12-17T06:41:36.208Z,24.07
2018-12-17T06:44:04.396Z,26.03
2018-12-17T06:46:32.615Z,20.77
2018-12-17T06:49:00.825Z,22.57
2018-12-17T06:51:28.981Z,19.43
2018-12-17T06:53:57.172Z,24.90
2018-12-17T06:56:25.324Z,22.17
2018-12-17T06:58:53.525Z,22.70
2018-12-17T07:01:21.732Z,20.37
2018-12-17T07:03:49.920Z,24.80
2018-12-17T07:06:18.089Z,21.93
2018-12-17T07:08:46.269Z,20.10
2018-12-17T07:11:14.439Z,24.37
2018-12-17T07:13:42.615Z,21.17
2018-12-17T07:16:10.783Z,23.03
2018-12-17T07:18:38.955Z,24.27
2018-12-17T07:21:07.196Z,24.07
2018-12-17T07:23:35.448Z,17.90
2018-12-17T07:26:03.611Z,21.77
2018-12-17T07:28:31.798Z,23.03
2018-12-17T07:30:59.968Z,22.30
2018-12-17T07:33:28.140Z,24.57
2018-12-17T07:35:56.302Z,21.70
2018-12-17T07:38:24.564Z,27.97
2018-12-17T07:40:53.298Z,21.47
2018-12-17T07:43:21.472Z,23.03
2018-12-17T07:45:49.651Z,24.97
2018-12-17T07:48:17.836Z,19.77
2018-12-17T07:50:45.998Z,24.17
2018-12-17T07:53:14.173Z,24.00
2018-12-17T07:55:42.348Z,25.47
2018-12-17T07:58:10.532Z,26.37
2018-12-17T08:00:38.701Z,25.17
2018-12-17T08:03:06.915Z,21.70
2018-12-17T08:05:35.092Z,26.67
2018-12-17T08:08:03.285Z,21.87
2018-12-17T08:10:31.455Z,23.10
2018-12-17T08:12:59.763Z,22.23
2018-12-17T08:15:27.904Z,26.00
2018-12-17T08:18:08.775Z,20.40
2018-12-17T08:20:36.971Z,20.00
2018-12-17T08:23:05.141Z,23.00
2018-12-17T08:25:33.412Z,23.50
2018-12-17T08:28:01.569Z,21.40
2018-12-17T08:30:29.765Z,19.57
2018-12-17T08:32:57.944Z,19.00
2018-12-17T08:35:26.130Z,18.77
2018-12-17T08:37:54.297Z,16.10
2018-12-17T08:40:22.493Z,18.90
2018-12-17T08:42:50.703Z,16.77
2018-12-17T08:45:18.864Z,17.77
2018-12-17T08:47:47.053Z,16.00
2018-12-17T08:50:15.227Z,16.03
2018-12-17T08:52:43.408Z,17.17
2018-12-17T08:55:11.853Z,19.37
2018-12-17T08:57:40.042Z,18.50
2018-12-17T09:00:11.197Z,14.67
2018-12-17T09:02:39.655Z,15.77
2018-12-17T09:05:07.919Z,15.97
2018-12-17T09:07:36.190Z,15.37
2018-12-17T09:10:05.222Z,15.30
2018-12-17T09:12:33.415Z,13.73
2018-12-17T09:15:01.565Z,13.73
2018-12-17T09:17:29.767Z,13.20
2018-12-17T09:19:57.952Z,11.53
2018-12-17T09:22:26.125Z,12.40
2018-12-17T09:24:54.300Z,11.13
2018-12-17T09:27:22.487Z,9.90
2018-12-17T09:29:50.637Z,9.07
2018-12-17T09:32:18.808Z,13.30
2018-12-17T09:34:47.057Z,13.97
2018-12-17T09:37:15.216Z,13.80
2018-12-17T09:39:43.396Z,12.27
2018-12-17T09:42:11.578Z,10.73
2018-12-17T09:44:39.781Z,11.23
2018-12-17T09:47:07.916Z,9.73
2018-12-17T09:49:36.121Z,11.27
2018-12-17T09:52:04.269Z,8.27
2018-12-17T09:54:32.466Z,10.87
2018-12-17T09:57:00.713Z,10.43
2018-12-17T09:59:28.904Z,12.20
2018-12-17T10:01:57.223Z,10.50
2018-12-17T10:04:26.024Z,8.70
2018-12-17T10:06:54.176Z,9.73
2018-12-17T10:09:22.335Z,10.37
2018-12-17T10:11:50.525Z,9.77
2018-12-17T10:14:18.681Z,11.40
2018-12-17T10:16:46.831Z,7.93
2018-12-17T10:19:15.019Z,9.67
2018-12-17T10:21:43.278Z,14.47
2018-12-17T10:24:11.532Z,9.27
2018-12-17T10:26:39.791Z,12.17
2018-12-17T10:29:07.940Z,17.10
2018-12-17T10:31:36.116Z,9.43
2018-12-17T10:34:04.752Z,10.40
2018-12-17T10:36:32.959Z,11.87
2018-12-17T10:39:01.137Z,10.97
2018-12-17T10:41:29.313Z,12.80
2018-12-17T10:43:57.709Z,11.57
2018-12-17T10:46:26.788Z,15.33
2018-12-17T10:48:54.968Z,20.33
2018-12-17T10:51:24.668Z,16.10
2018-12-17T10:53:53.455Z,14.23
2018-12-17T10:56:21.637Z,11.77
2018-12-17T10:58:50.225Z,10.97
2018-12-17T11:01:19.200Z,13.17
2018-12-17T11:03:47.346Z,13.13
2018-12-17T11:06:16.653Z,14.47
2018-12-17T11:08:45.867Z,11.47
2018-12-17T11:11:14.056Z,12.10
2018-12-17T11:13:42.900Z,12.50
2018-12-17T11:16:11.103Z,14.17
2018-12-17T11:18:39.248Z,12.17
2018-12-17T11:21:07.418Z,10.07
2018-12-17T11:23:36.311Z,15.00
2018-12-17T11:26:04.565Z,16.17
2018-12-17T11:28:32.846Z,12.83
2018-12-17T11:31:01.037Z,12.80
2018-12-17T11:33:29.233Z,11.40
2018-12-17T11:35:57.394Z,12.60
2018-12-17T11:38:25.639Z,13.97
2018-12-17T11:40:53.820Z,15.43
2018-12-17T11:43:22.157Z,13.93
2018-12-17T11:45:50.328Z,14.57
2018-12-17T11:48:18.491Z,9.83
2018-12-17T11:50:46.665Z,11.37
2018-12-17T11:53:14.856Z,11.17
2018-12-17T11:55:43.021Z,9.43
2018-12-17T11:58:11.418Z,10.00
2018-12-17T12:00:39.677Z,13.03
2018-12-17T12:03:07.860Z,12.87
2018-12-17T12:05:36.212Z,12.57
2018-12-17T12:08:04.521Z,11.43
2018-12-17T12:10:32.949Z,10.67
2018-12-17T12:13:01.153Z,15.10
2018-12-17T12:15:29.330Z,12.10
2018-12-17T12:17:57.586Z,10.73
2018-12-17T12:20:25.737Z,14.00
2018-12-17T12:22:53.973Z,8.70
2018-12-17T12:25:22.213Z,10.43
2018-12-17T12:27:50.389Z,11.60
2018-12-17T12:30:18.574Z,15.53
2018-12-17T12:32:46.729Z,11.03
2018-12-17T12:35:15.208Z,7.27
2018-12-17T12:37:44.125Z,9.83
2018-12-17T12:40:13.656Z,11.07
2018-12-17T12:42:41.872Z,11.37
2018-12-17T12:45:10.006Z,10.70
2018-12-17T12:47:38.160Z,9.30
2018-12-17T12:50:07.808Z,7.80
2018-12-17T12:52:35.953Z,11.37
2018-12-17T12:55:04.604Z,12.73
2018-12-17T12:57:32.773Z,11.23
2018-12-17T13:00:00.945Z,12.23
2018-12-17T13:02:29.126Z,9.93
2018-12-17T13:04:57.292Z,12.33
2018-12-17T13:07:25.468Z,9.83
2018-12-17T13:09:53.644Z,7.27
2018-12-17T13:12:21.817Z,11.40
2018-12-17T13:14:49.980Z,15.33
2018-12-17T13:17:18.308Z,11.73
2018-12-17T13:19:47.044Z,10.43
2018-12-17T13:22:16.084Z,7.90
2018-12-17T13:24:44.240Z,10.97
2018-12-17T13:27:12.417Z,10.87
2018-12-17T13:29:40.576Z,10.07
2018-12-17T13:32:08.812Z,9.63
2018-12-17T13:34:36.986Z,8.10
2018-12-17T13:37:05.174Z,10.93
2018-12-17T13:39:33.411Z,13.10
2018-12-17T13:42:01.681Z,13.37
2018-12-17T13:44:31.320Z,11.80
2018-12-17T13:47:00.412Z,8.53
2018-12-17T13:49:29.425Z,13.37
2018-12-17T13:51:58.351Z,10.37
2018-12-17T13:54:26.530Z,8.73
2018-12-17T13:56:54.720Z,9.33
2018-12-17T13:59:22.883Z,8.33
2018-12-17T14:01:51.543Z,15.40
2018-12-17T14:04:20.506Z,9.13
2018-12-17T14:06:48.662Z,8.87
2018-12-17T14:09:16.992Z,16.07
2018-12-17T14:11:45.359Z,12.63
2018-12-17T14:14:13.629Z,11.50
2018-12-17T14:16:41.872Z,14.67
2018-12-17T14:19:10.065Z,10.20
2018-12-17T14:21:38.302Z,15.90
2018-12-17T14:24:06.449Z,11.00
2018-12-17T14:26:34.629Z,15.67
2018-12-17T14:29:02.870Z,9.77
2018-12-17T14:31:31.299Z,7.90
2018-12-17T14:33:59.464Z,8.70
2018-12-17T14:36:27.704Z,13.07
2018-12-17T14:38:55.889Z,9.97
2018-12-17T14:41:24.063Z,10.63
2018-12-17T14:43:52.252Z,10.00
2018-12-17T14:46:20.440Z,15.00
2018-12-17T14:48:48.645Z,11.10
2018-12-17T14:51:16.805Z,19.23
2018-12-17T14:53:44.972Z,12.27
2018-12-17T14:56:13.136Z,7.70
2018-12-17T14:58:44.638Z,14.20
2018-12-17T15:01:11.556Z,12.53
2018-12-17T15:03:39.717Z,10.00
2018-12-17T15:06:07.894Z,13.03
2018-12-17T15:08:36.054Z,13.27
2018-12-17T15:11:04.237Z,14.70
2018-12-17T15:13:32.608Z,10.33
2018-12-17T15:16:00.821Z,11.37
2018-12-17T15:18:28.969Z,10.10
2018-12-17T15:20:58.265Z,15.60
2018-12-17T15:23:26.431Z,13.57
2018-12-17T15:25:58.442Z,10.90
2018-12-17T15:28:27.631Z,11.30
2018-12-17T15:30:55.800Z,13.27
2018-12-17T15:33:24.056Z,12.10
2018-12-17T15:35:55.236Z,10.33
2018-12-17T15:38:27.040Z,10.40
2018-12-17T15:40:56.191Z,10.27
2018-12-17T15:43:24.435Z,9.40
2018-12-17T15:45:52.601Z,12.13
2018-12-17T15:48:20.785Z,11.37
2018-12-17T15:50:51.557Z,10.70
2018-12-17T15:53:29.541Z,10.93
2018-12-17T15:55:57.700Z,12.20
2018-12-17T15:58:25.965Z,14.47
2018-12-17T16:00:54.114Z,12.93
2018-12-17T16:03:22.317Z,12.73
2018-12-17T16:05:50.577Z,10.53
2018-12-17T16:08:18.818Z,9.40
2018-12-17T16:10:46.972Z,12.33
2018-12-17T16:13:15.133Z,13.13
2018-12-17T16:15:43.325Z,9.27
2018-12-17T16:18:11.506Z,10.37
2018-12-17T16:20:39.683Z,9.90
2018-12-17T16:23:07.840Z,13.40
2018-12-17T16:25:36.042Z,16.70
2018-12-17T16:28:04.303Z,15.20
2018-12-17T16:30:32.480Z,10.53
2018-12-17T16:33:00.636Z,15.73
2018-12-17T16:35:28.912Z,12.60
2018-12-17T16:37:57.068Z,12.90
2018-12-17T16:40:25.248Z,15.10
2018-12-17T16:42:53.401Z,22.00
2018-12-17T16:45:21.701Z,12.70
2018-12-17T16:47:49.864Z,11.37
2018-12-17T16:50:18.077Z,15.23
2018-12-17T16:52:46.255Z,15.33
2018-12-17T16:55:14.815Z,17.87
2018-12-17T16:57:43.005Z,13.40
2018-12-17T17:00:11.233Z,10.57
2018-12-17T17:02:39.553Z,15.43
2018-12-17T17:05:07.875Z,19.43
2018-12-17T17:07:36.057Z,16.20
2018-12-17T17:10:07.384Z,16.80
2018-12-17T17:12:35.611Z,16.87
2018-12-17T17:15:05.865Z,18.30
2018-12-17T17:17:34.069Z,21.77
2018-12-17T17:20:03.500Z,18.30
2018-12-17T17:22:31.710Z,18.70
2018-12-17T17:24:59.855Z,20.77
2018-12-17T17:27:28.113Z,15.50
2018-12-17T17:29:56.826Z,18.23
2018-12-17T17:32:25.092Z,20.77
2018-12-17T17:34:53.273Z,16.70
2018-12-17T17:37:21.435Z,15.60
2018-12-17T17:39:49.639Z,19.80
2018-12-17T17:42:17.834Z,22.23
2018-12-17T17:44:46.022Z,19.63
2018-12-17T17:47:14.312Z,19.17
2018-12-17T17:49:42.517Z,22.17
2018-12-17T17:52:11.303Z,21.07
2018-12-17T17:54:39.480Z,22.57
2018-12-17T17:57:07.657Z,21.67
2018-12-17T17:59:35.922Z,21.60
2018-12-17T18:02:04.095Z,19.93
2018-12-17T18:04:32.268Z,25.43
2018-12-17T18:07:00.454Z,21.80
2018-12-17T18:09:28.688Z,22.03
2018-12-17T18:11:56.928Z,21.07
2018-12-17T18:14:25.121Z,22.20
2018-12-17T18:16:53.424Z,23.47
2018-12-17T18:19:21.631Z,23.53
2018-12-17T18:21:49.799Z,23.00
2018-12-17T18:24:17.966Z,28.67
2018-12-17T18:26:46.173Z,26.00
2018-12-17T18:29:14.335Z,25.07
2018-12-17T18:31:42.533Z,27.93
2018-12-17T18:34:10.696Z,25.90
2018-12-17T18:36:38.912Z,26.07
2018-12-17T18:39:07.091Z,22.63
2018-12-17T18:41:35.279Z,23.57
2018-12-17T18:44:03.572Z,30.10
2018-12-17T18:46:36.490Z,29.10
2018-12-17T18:54:50.874Z,23.10
2018-12-17T18:57:19.205Z,19.97
2018-12-17T18:59:47.367Z,25.43
2018-12-17T19:02:15.584Z,25.80
2018-12-17T19:04:43.757Z,25.43
2018-12-17T19:07:11.948Z,25.87
2018-12-17T19:09:40.210Z,23.37
2018-12-17T19:12:08.428Z,25.47
2018-12-17T19:14:36.582Z,23.30
2018-12-17T19:17:04.801Z,26.20
2018-12-17T19:19:33.112Z,31.40
2018-12-17T19:22:01.290Z,23.30
2018-12-17T19:24:29.502Z,26.73
2018-12-17T19:26:57.679Z,28.60
2018-12-17T19:29:25.894Z,26.13
2018-12-17T19:31:54.144Z,22.77
2018-12-17T19:34:22.407Z,23.07
2018-12-17T19:36:50.564Z,26.60
2018-12-17T19:39:19.046Z,25.93
2018-12-17T19:41:47.258Z,25.30
2018-12-17T19:44:15.434Z,22.73
2018-12-17T19:46:44.469Z,24.90
2018-12-17T19:49:12.771Z,23.43
2018-12-17T19:51:40.964Z,21.20
2018-12-17T19:54:09.156Z,25.70
2018-12-17T19:56:37.380Z,21.83
2018-12-17T19:59:05.680Z,31.33
2018-12-17T20:01:33.857Z,22.73
2018-12-17T20:04:02.221Z,25.17
2018-12-17T20:06:30.562Z,25.27
2018-12-17T20:08:58.792Z,19.97
2018-12-17T20:11:26.955Z,21.23
2018-12-17T20:13:55.161Z,17.87
2018-12-17T20:16:23.404Z,23.00
2018-12-17T20:18:51.683Z,21.03
2018-12-17T20:21:19.986Z,22.10
2018-12-17T20:23:48.155Z,21.97
2018-12-17T20:26:16.463Z,23.73
2018-12-17T20:28:44.637Z,20.27
2018-12-17T20:31:12.948Z,20.43
2018-12-17T20:33:41.154Z,22.10
2018-12-17T20:36:09.426Z,20.47
2018-12-17T20:38:38.321Z,25.00
2018-12-17T20:41:06.516Z,24.00
2018-12-17T20:43:34.677Z,26.00
2018-12-17T20:46:03.869Z,20.43
2018-12-17T20:48:33.108Z,25.90
2018-12-17T20:51:01.285Z,22.73
2018-12-17T20:53:29.501Z,29.17
2018-12-17T20:55:57.710Z,20.83
2018-12-17T20:58:25.924Z,21.03
2018-12-17T21:00:55.017Z,24.37
2018-12-17T21:03:23.200Z,26.97
2018-12-17T21:05:51.440Z,17.83
2018-12-17T21:08:19.925Z,20.20
2018-12-17T21:10:48.100Z,22.10
2018-12-17T21:13:16.292Z,31.27
2018-12-17T21:15:44.610Z,30.40
2018-12-17T21:18:12.991Z,24.73
2018-12-17T21:20:41.228Z,27.43
2018-12-17T21:23:09.447Z,26.33
2018-12-17T21:25:37.626Z,29.60
2018-12-17T21:28:06.790Z,27.90
2018-12-17T21:30:34.953Z,24.47
2018-12-17T21:33:06.721Z,22.77
2018-12-17T21:35:33.328Z,26.70
2018-12-17T21:38:01.525Z,26.73
2018-12-17T21:40:29.711Z,27.07
2018-12-17T21:42:57.900Z,27.13
2018-12-17T21:45:26.642Z,28.50
2018-12-17T21:47:54.832Z,19.20
2018-12-17T21:50:23.091Z,23.73
2018-12-17T21:52:51.282Z,23.57
2018-12-17T21:55:19.489Z,26.40
2018-12-17T21:57:47.764Z,24.43
2018-12-17T22:00:15.959Z,28.10
2018-12-17T22:02:44.105Z,25.60
2018-12-17T22:05:12.306Z,28.10
2018-12-17T22:07:41.148Z,20.47
2018-12-17T22:10:10.109Z,24.13
2018-12-17T22:12:39.082Z,25.03
2018-12-17T22:15:07.458Z,23.37
2018-12-17T22:17:35.647Z,20.90
2018-12-17T22:20:05.330Z,20.13
2018-12-17T22:22:33.456Z,24.63
2018-12-17T22:25:01.682Z,22.43
2018-12-17T22:27:29.902Z,21.07
2018-12-17T22:29:58.075Z,23.03
2018-12-17T22:32:26.249Z,23.63
2018-12-17T22:34:54.443Z,17.53
2018-12-17T22:37:23.241Z,24.00
2018-12-17T22:39:51.410Z,19.23
2018-12-17T22:42:19.602Z,25.37
2018-12-17T22:44:47.805Z,20.67
2018-12-17T22:47:16.013Z,24.07
2018-12-17T22:49:44.184Z,19.50
2018-12-17T22:52:12.404Z,22.57
2018-12-17T22:54:40.626Z,19.07
2018-12-17T22:57:08.848Z,20.73
2018-12-17T22:59:37.046Z,21.33
2018-12-17T23:02:05.311Z,17.90
2018-12-17T23:04:33.480Z,25.63
2018-12-17T23:07:01.659Z,17.17
2018-12-17T23:09:41.960Z,19.07
2018-12-17T23:12:22.279Z,17.60
2018-12-17T23:15:02.346Z,19.43
2018-12-17T23:17:39.236Z,19.30
2018-12-17T23:20:08.677Z,19.60
2018-12-17T23:22:38.110Z,21.63
2018-12-17T23:25:06.440Z,20.73
2018-12-17T23:27:34.729Z,18.47
2018-12-17T23:30:05.064Z,17.73
2018-12-17T23:32:33.708Z,20.03
2018-12-17T23:35:02.024Z,21.90
2018-12-17T23:37:30.545Z,20.10
2018-12-17T23:39:58.908Z,27.50
2018-12-17T23:42:27.269Z,25.73
2018-12-17T23:44:55.735Z,26.17
2018-12-17T23:47:23.904Z,25.47
2018-12-17T23:49:52.123Z,25.13
2018-12-17T23:52:20.341Z,23.73
2018-12-17T23:54:48.519Z,26.93
2018-12-17T23:57:16.671Z,21.23
2018-12-17T23:59:44.875Z,23.03
